King of Scandinavia — OVOL2 — position and weather

sailwx.info

Track history (hours):
 
Tides and Currents Weather Stations Pressure Air Temp Water Temp Dewpoint Dewpoint Depression Visibility Wind Speed Wind Dir Waves Ship Positions

King of Scandinavia

Ship's website: http://www.dfds.co.uk/DSW/EN/OnBoard/na/KING.htm

Last reported at 2016-Oct-01 04:34 UTC. Time now 2016-Oct-01 17:16 UTC.
Position N 54°33' W 000°05'.

Length 166 m; beam 27.6 m; draft 6.2 m.

Type: Ship. MMSI: 220449000.

Date/timePositionNaut miles runAvg speedWind from/ knotsBaromVisibWave heightAir tempDewpointWater temp
2016-Oct-01 04:34N 54°33' W 000°05'1413.9
2016-Oct-01 03:33N 54°25' E 000°15'18116.4
2016-Sep-30 16:31N 52°35' E 004°19'13 6.3
2016-Sep-30 14:31N 52°28' E 004°35'0 0.0
2016-Sep-30 13:31N 52°28' E 004°35'0 0.0
2016-Sep-30 10:30N 52°28' E 004°35'0 0.0
2016-Sep-30 08:30N 52°28' E 004°35'12 6.0
2016-Sep-30 06:34N 52°34' E 004°19'16317.7
2016-Sep-29 21:22N 54°14' E 000°44'1417.2
2016-Sep-29 20:34N 54°21' E 000°23'1818.4
2016-Sep-29 19:34N 54°30' W 000°04'191 7.1
2016-Sep-28 16:33N 52°37' E 004°15'1615.7
2016-Sep-28 15:33N 52°28' E 004°35'0 0.0
2016-Sep-28 12:32N 52°28' E 004°35'0 0.0
2016-Sep-28 08:32N 52°28' E 004°35'5511.1
2016-Sep-28 03:33N 53°03' E 003°25'1918.4
2016-Sep-28 02:33N 53°15' E 003°01'1818.1
2016-Sep-28 01:33N 53°24' E 002°35'3517.7
2016-Sep-27 23:33N 53°45' E 001°47'13533.8
2016-Sep-27 19:33N 55°01' W 001°25'1 0.2
2016-Sep-27 14:33N 54°60' W 001°27'0 0.5
2016-Sep-27 13:32N 54°59' W 001°27'0 0.0
2016-Sep-27 10:32N 54°59' W 001°27'0 0.0
2016-Sep-27 00:33N 54°59' W 001°27'0 0.0
2016-Sep-26 20:33N 54°59' W 001°27'1 0.8
2016-Sep-26 19:33N 55°00' W 001°27'1 0.2
2016-Sep-26 15:33N 54°60' W 001°27'1 0.4
2016-Sep-26 13:33N 55°00' W 001°26'0 0.0
2016-Sep-26 11:32N 55°00' W 001°26'1 0.3
2016-Sep-26 08:33N 54°59' W 001°27'1 0.1
2016-Sep-26 02:33N 55°00' W 001°26'1 0.7
2016-Sep-26 01:33N 54°60' W 001°27'0 0.1
2016-Sep-26 00:33N 54°60' W 001°27'0 0.1
2016-Sep-25 21:33N 54°59' W 001°27'1 0.1
2016-Sep-25 17:33N 54°60' W 001°27'0 0.2
2016-Sep-25 16:33N 55°00' W 001°27'1 0.7
2016-Sep-25 15:33N 54°59' W 001°27'0 0.0
2016-Sep-25 14:33N 54°59' W 001°27'0 0.0
2016-Sep-25 12:33N 54°59' W 001°27'0 0.0
2016-Sep-25 11:32N 54°59' W 001°27'0 0.0
2016-Sep-25 10:33N 54°59' W 001°27'0 0.0
2016-Sep-25 09:33N 54°59' W 001°27'13 6.3
2016-Sep-25 07:33N 54°56' W 001°06'4414.6
2016-Sep-25 04:34N 54°32' W 000°02'16315.8
2016-Sep-24 18:16N 52°55' E 003°39'1216.1
2016-Sep-24 17:33N 52°48' E 003°54'1615.8
2016-Sep-24 16:33N 52°38' E 004°14'16 8.2
2016-Sep-24 14:33N 52°28' E 004°35'0 0.0
2016-Sep-24 12:33N 52°28' E 004°35'0 0.0
2016-Sep-24 10:33N 52°28' E 004°35'0 0.0
2016-Sep-24 09:33N 52°28' E 004°35'24317.3
2016-Sep-23 19:33N 54°52' W 000°55'1 0.7
2016-Sep-23 17:34N 54°52' W 000°57'1918.8
2016-Sep-23 16:34N 54°59' W 001°27'0 0.1
2016-Sep-23 15:34N 54°59' W 001°27'0 0.0
2016-Sep-23 13:34N 54°59' W 001°27'0 0.1
2016-Sep-23 09:26N 54°60' W 001°27'24 8.3
2016-Sep-23 06:33N 54°50' W 000°49'2813.9
2016-Sep-23 04:33N 54°35' W 000°09'1818.3
2016-Sep-23 03:33N 54°24' E 000°18'19312.8
2016-Sep-22 12:31N 52°28' E 004°35'16111.3
2016-Sep-21 22:12N 54°07' E 001°03'5420.4
2016-Sep-21 19:33N 54°37' W 000°15'4815.9
2016-Sep-21 16:33N 54°59' W 001°27'0 0.0
2016-Sep-21 09:31N 54°59' W 001°27'0 0.0
2016-Sep-21 08:31N 54°59' W 001°27'  
Track history (hours):
 
Tides and Currents Weather Stations Pressure Air Temp Water Temp Dewpoint Dewpoint Depression Visibility Wind Speed Wind Dir Waves Ship Positions

King of Scandinavia

Ship's website: http://www.dfds.co.uk/DSW/EN/OnBoard/na/KING.htm

Last reported at 2016-Oct-01 04:34 UTC. Time now 2016-Oct-01 17:16 UTC.
Position N 54°33' W 000°05'.

Length 166 m; beam 27.6 m; draft 6.2 m.

Type: Ship. MMSI: 220449000.

Date/timePositionNaut miles runAvg speedWind from/ knotsBaromVisibWave heightAir tempDewpointWater temp
2016-Oct-01 04:34N 54°33' W 000°05'1413.9
2016-Oct-01 03:33N 54°25' E 000°15'18116.4
2016-Sep-30 16:31N 52°35' E 004°19'13 6.3
2016-Sep-30 14:31N 52°28' E 004°35'0 0.0
2016-Sep-30 13:31N 52°28' E 004°35'0 0.0
2016-Sep-30 10:30N 52°28' E 004°35'0 0.0
2016-Sep-30 08:30N 52°28' E 004°35'12 6.0
2016-Sep-30 06:34N 52°34' E 004°19'16317.7
2016-Sep-29 21:22N 54°14' E 000°44'1417.2
2016-Sep-29 20:34N 54°21' E 000°23'1818.4
2016-Sep-29 19:34N 54°30' W 000°04'191 7.1
2016-Sep-28 16:33N 52°37' E 004°15'1615.7
2016-Sep-28 15:33N 52°28' E 004°35'0 0.0
2016-Sep-28 12:32N 52°28' E 004°35'0 0.0
2016-Sep-28 08:32N 52°28' E 004°35'5511.1
2016-Sep-28 03:33N 53°03' E 003°25'1918.4
2016-Sep-28 02:33N 53°15' E 003°01'1818.1
2016-Sep-28 01:33N 53°24' E 002°35'3517.7
2016-Sep-27 23:33N 53°45' E 001°47'13533.8
2016-Sep-27 19:33N 55°01' W 001°25'1 0.2
2016-Sep-27 14:33N 54°60' W 001°27'0 0.5
2016-Sep-27 13:32N 54°59' W 001°27'0 0.0
2016-Sep-27 10:32N 54°59' W 001°27'0 0.0
2016-Sep-27 00:33N 54°59' W 001°27'0 0.0
2016-Sep-26 20:33N 54°59' W 001°27'1 0.8
2016-Sep-26 19:33N 55°00' W 001°27'1 0.2
2016-Sep-26 15:33N 54°60' W 001°27'1 0.4
2016-Sep-26 13:33N 55°00' W 001°26'0 0.0
2016-Sep-26 11:32N 55°00' W 001°26'1 0.3
2016-Sep-26 08:33N 54°59' W 001°27'1 0.1
2016-Sep-26 02:33N 55°00' W 001°26'1 0.7
2016-Sep-26 01:33N 54°60' W 001°27'0 0.1
2016-Sep-26 00:33N 54°60' W 001°27'0 0.1
2016-Sep-25 21:33N 54°59' W 001°27'1 0.1
2016-Sep-25 17:33N 54°60' W 001°27'0 0.2
2016-Sep-25 16:33N 55°00' W 001°27'1 0.7
2016-Sep-25 15:33N 54°59' W 001°27'0 0.0
2016-Sep-25 14:33N 54°59' W 001°27'0 0.0
2016-Sep-25 12:33N 54°59' W 001°27'0 0.0
2016-Sep-25 11:32N 54°59' W 001°27'0 0.0
2016-Sep-25 10:33N 54°59' W 001°27'0 0.0
2016-Sep-25 09:33N 54°59' W 001°27'13 6.3
2016-Sep-25 07:33N 54°56' W 001°06'4414.6
2016-Sep-25 04:34N 54°32' W 000°02'16315.8
2016-Sep-24 18:16N 52°55' E 003°39'1216.1
2016-Sep-24 17:33N 52°48' E 003°54'1615.8
2016-Sep-24 16:33N 52°38' E 004°14'16 8.2
2016-Sep-24 14:33N 52°28' E 004°35'0 0.0
2016-Sep-24 12:33N 52°28' E 004°35'0 0.0
2016-Sep-24 10:33N 52°28' E 004°35'0 0.0
2016-Sep-24 09:33N 52°28' E 004°35'24317.3
2016-Sep-23 19:33N 54°52' W 000°55'1 0.7
2016-Sep-23 17:34N 54°52' W 000°57'1918.8
2016-Sep-23 16:34N 54°59' W 001°27'0 0.1
2016-Sep-23 15:34N 54°59' W 001°27'0 0.0
2016-Sep-23 13:34N 54°59' W 001°27'0 0.1
2016-Sep-23 09:26N 54°60' W 001°27'24 8.3
2016-Sep-23 06:33N 54°50' W 000°49'2813.9
2016-Sep-23 04:33N 54°35' W 000°09'1818.3
2016-Sep-23 03:33N 54°24' E 000°18'19312.8
2016-Sep-22 12:31N 52°28' E 004°35'16111.3
2016-Sep-21 22:12N 54°07' E 001°03'5420.4
2016-Sep-21 19:33N 54°37' W 000°15'4815.9
2016-Sep-21 16:33N 54°59' W 001°27'0 0.0
2016-Sep-21 09:31N 54°59' W 001°27'0 0.0
2016-Sep-21 08:31N 54°59' W 001°27'  

Dump ship's entire track history